San Antonio, Valles Caldera, New Mexico Weather observations

Data are for 10 minute period ending at time listed.
 Day   Time   Solar   Ave.   Ave.  Ave.  Vector  Max.   Baro.   Total    
  of    of     Rad.   Air    Rel.  Wind   Wind   Wind  Press.  Precip.   
Year   Day            Temp.  Hum.  Speed  Dir.   Gust                    
2017   (MST)  Kw/m2    F      %     mph   deg.    mph    mb.     in.     
-------------------------------------------------------------------------
 148   19:30   0.00   51.9    29    1.4   257     5.4   99999.0    0.00 
 148   19:40   0.00   50.0    29    1.2   257     2.4   99999.0    0.00 
 148   19:50   0.00   49.7    29    1.5   257     3.6   99999.0    0.00 
 148   20:00   0.00   48.9    30    2.4   257     3.6   99999.0    0.00 
 148   20:10   0.00   48.0    31    2.0   257     3.6   99999.0    0.00 
 148   20:20   0.00   46.7    32    1.9   257     3.0   99999.0    0.00 
 148   20:30   0.00   46.3    32    1.9   257     3.6   99999.0    0.00 
 148   20:40   0.00   45.7    33    2.2   257     4.2   99999.0    0.00 
 148   20:50   0.00   45.2    35    1.6   257     3.0   99999.0    0.00 
 148   21:00   0.00   43.4    38    1.7   257     3.6   99999.0    0.00 
 148   21:10   0.00   42.4    40    1.8   258     3.0   99999.0    0.00 
 148   21:20   0.00   41.1    44    3.2   258     4.2   99999.0    0.00 
 148   21:30   0.00   41.2    42    1.7   258     4.2   99999.0    0.00 
 148   21:40   0.00   41.1    44    0.7   258     1.8   99999.0    0.00 
 148   21:50   0.00   39.4    48    0.9   258     2.4   99999.0    0.00 
 148   22:00   0.00   38.5    51    1.3   258     2.4   99999.0    0.00 
 148   22:10   0.00   38.8    50    2.4   258     3.6   99999.0    0.00 
 148   22:20   0.00   40.2    49    4.4   259    11.3   99999.0    0.00 
 148   22:30   0.00   48.0    37    6.4   262    12.5   99999.0    0.00 
 148   22:40   0.00   44.1    46    2.9   262     5.4   99999.0    0.00 
 148   22:50   0.00   39.8    53    2.7   257     7.2   99999.0    0.00 
 148   23:00   0.00   42.5    51    3.5   260    11.9   99999.0    0.00 
 148   23:10   0.00   41.6    53    2.6   261     6.6   99999.0    0.00 
 148   23:20   0.00   42.1    53    4.8   263    12.5   99999.0    0.00 
 148   23:30   0.00   49.0    42    6.8   261    10.8   99999.0    0.00 
 148   23:40   0.00   49.6    41    5.8   260     9.6   99999.0    0.00 
 148   23:50   0.00   49.2    42    6.2   262    11.3   99999.0    0.00 
 149    0:00   0.00   48.8    43    5.2   262     7.8   99999.0    0.00 
 149    0:10   0.00   48.5    44    6.7   262    11.3   99999.0    0.00 
 149    0:20   0.00   48.9    43    5.5   262     8.4   99999.0    0.00 
 149    0:30   0.00   48.7    44    5.3   260     8.4   99999.0    0.00 
 149    0:40   0.00   48.3    45    4.9   262    10.2   99999.0    0.00 
 149    0:50   0.00   46.3    49    5.0   262     8.4   99999.0    0.00 
 149    1:00   0.00   47.8    46    5.6   262    12.5   99999.0    0.00 
 149    1:10   0.00   48.4    46    5.7   261     9.0   99999.0    0.00 
 149    1:20   0.00   48.1    46    5.6   262     9.6   99999.0    0.00 
 149    1:30   0.00   47.8    48    5.1   261     9.6   99999.0    0.00 
 149    1:40   0.00   48.3    48    7.4   263    13.7   99999.0    0.00 
 149    1:50   0.00   47.9    48    5.3   262     9.0   99999.0    0.00 
 149    2:00   0.00   47.6    49    5.4   262    10.8   99999.0    0.00 
 149    2:10   0.00   46.8    51    6.3   262     9.0   99999.0    0.00 
 149    2:20   0.00   47.2    51    7.1   262    11.3   99999.0    0.00 
 149    2:30   0.00   47.5    50    6.3   262    10.2   99999.0    0.00 
 149    2:40   0.00   47.0    51    5.2   262     9.0   99999.0    0.00 
 149    2:50   0.00   41.0    60    2.6   262     4.8   99999.0    0.00 
 149    3:00   0.00   37.7    67    1.5   262     3.0   99999.0    0.00 
 149    3:10   0.00   36.7    69    1.1   262     3.6   99999.0    0.00 
 149    3:20   0.00   35.3    72    1.6   262     3.0   99999.0    0.00 
 149    3:30   0.00   34.5    75    0.4   262     1.8   99999.0    0.00 
 149    3:40   0.00   34.5    75    1.5   262     3.6   99999.0    0.00 
 149    3:50   0.00   35.6    72    1.7   262     3.6   99999.0    0.00 
 149    4:00   0.00   33.7    74    1.6   262     3.6   99999.0    0.00 
 149    4:10   0.00   33.4    78    1.6   262     3.6   99999.0    0.00 
 149    4:20   0.00   31.7    79    1.6   262     4.2   99999.0    0.00 
 149    4:30   0.00   31.2    82    2.5   262     4.2   99999.0    0.00 
 149    4:40   0.00   30.3    83    0.4   262     2.4   99999.0    0.00 
 149    4:50   0.00   31.5    83    2.1   262     3.6   99999.0    0.00 
 149    5:00   0.00   33.2    79    1.9   262     3.6   99999.0    0.00 
 149    5:10   0.01   34.1    77    1.8   262     3.0   99999.0    0.00 
 149    5:20   0.01   32.7    77    1.4   262     4.2   99999.0    0.00 
 149    5:30   0.02   31.6    81    0.6   261     2.4   99999.0    0.00 
 149    5:40   0.02   31.8    81    2.3   261     4.2   99999.0    0.00 
 149    5:50   0.02   31.1    82    1.6   261     3.0   99999.0    0.00 
 149    6:00   0.03   31.3    83    0.8   261     1.8   99999.0    0.00 
 149    6:10   0.03   31.9    82    1.6   261     3.6   99999.0    0.00 
 149    6:20   0.04   32.2    82    1.5   261     4.2   99999.0    0.00 
 149    6:30   0.10   33.6    81    1.5   261     4.8   99999.0    0.00 
 149    6:40   0.30   36.3    77    2.5   260     4.2   99999.0    0.00 
 149    6:50   0.28   42.5    65    1.8   260     8.4   99999.0    0.00 
 149    7:00   0.32   48.3    54    5.9   266     9.6   99999.0    0.00 
 149    7:10   0.38   50.7    50    8.3   270    11.3   99999.0    0.00 
 149    7:20   0.42   51.4    50    7.2   268    10.2   99999.0    0.00 
 149    7:30   0.42   52.5    49    6.9   266    10.8   99999.0    0.00 
 149    7:40   0.40   53.1    48    5.9   265     8.4   99999.0    0.00 
 149    7:50   0.45   55.3    45    6.3   265     8.4   99999.0    0.00 
 149    8:00   0.36   58.1    38    2.8   260     6.6   99999.0    0.00 
 149    8:10   0.56   58.8    38    2.7   260     7.2   99999.0    0.00 
 149    8:20   0.57   59.0    37    4.7   262    11.3   99999.0    0.00 
 149    8:30   0.64   58.4    39    5.4   267    11.3   99999.0    0.00 
 149    8:40   0.67   58.6    38    6.2   271    11.9   99999.0    0.00 
 149    8:50   0.69   59.2    38    6.7   274    14.9   99999.0    0.00 
 149    9:00   0.68   58.9    39    9.0   281    14.3   99999.0    0.00 
 149    9:10   0.76   59.1    38    7.8   278    12.5   99999.0    0.00 
 149    9:20   0.78   59.7    38    8.3   273    13.7   99999.0    0.00 
 149    9:30   0.82   60.9    38    9.2   276    17.3   99999.0    0.00 
 149    9:40   0.61   60.6    38    9.2   283    14.9   99999.0    0.00 
 149    9:50   0.60   60.2    38    9.2   282    14.9   99999.0    0.00 
 149   10:00   0.90   60.8    38    9.3   282    14.3   99999.0    0.00 
 149   10:10   0.52   60.2    37    8.7   282    14.3   99999.0    0.00 
 149   10:20   0.37   57.7    39    7.4   279    11.9   99999.0    0.00 
 149   10:30   0.46   58.5    37    8.8   282    14.3   99999.0    0.00 
 149   10:40   0.68   60.6    36    8.2   281    17.3   99999.0    0.00 
 149   10:50   0.19   58.1    38    8.4   282    13.7   99999.0    0.00 
 149   11:00   0.12   54.9    48    5.4   269    12.5   99999.0    0.00 
 149   11:10   0.19   52.9    64    3.1   262     6.6   99999.0    0.00 
 149   11:20   0.33   54.8    50    2.9   263     6.0   99999.0    0.00 
 149   11:30   0.26   57.4    42    5.5   267    10.2   99999.0    0.00 
 149   11:40   0.57   58.5    41    6.3   273    15.5   99999.0    0.00 
 149   11:50   0.53   60.2    39    6.2   274    13.7   99999.0    0.00 
 149   12:00   0.54   60.9    36    8.0   280    11.9   99999.0    0.00 
 149   12:10   0.54   60.6    37    5.8   273    12.5   99999.0    0.00 
 149   12:20   0.39   61.2    33    8.1   277    17.9   99999.0    0.00 
 149   12:30   0.48   61.1    33    6.8   270    13.1   99999.0    0.00 
 149   12:40   0.68   62.1    29    8.2   254    16.7   99999.0    0.00 
 149   12:50   0.46   63.0    28    9.2   288    15.5   99999.0    0.00 
 149   13:00   0.26   61.8    28    5.2   272    10.8   99999.0    0.00 
 149   13:10   0.59   62.1    29    4.7   262    12.5   99999.0    0.00 
 149   13:20   0.17   60.9    30   11.8   279    18.5   99999.0    0.00 
 149   13:30   0.16   58.1    35    9.9   244    17.9   99999.0    0.00 
 149   13:40   0.15   55.8    45    6.4   269    20.9   99999.0    0.01 
 149   13:50   0.10   53.7    45   10.7   286    20.3   99999.0    0.00 
 149   14:00   0.08   51.8    48    7.1   263    13.7   99999.0    0.00 
 149   14:10   0.10   51.5    47    3.3   253     9.0   99999.0    0.00 
 149   14:20   0.17   52.5    46    2.7   255     4.8   99999.0    0.00 
 149   14:30   0.23   54.0    43    2.9   257     6.6   99999.0    0.00 
 149   14:40   0.43   56.9    36    3.0   258     6.6   99999.0    0.00 
 149   14:50   0.58   59.9    30    4.1   255     9.0   99999.0    0.00 
 149   15:00   0.46   60.3    28    3.6   262     6.0   99999.0    0.00 
 149   15:10   0.78   61.2    30    3.1   268     6.6   99999.0    0.00 
 149   15:20   0.84   62.4    27    3.8   267     6.6   99999.0    0.00 
 149   15:30   0.74   62.5    32    9.2   278    25.6   99999.0    0.00 
 149   15:40   0.66   61.8    32    7.5   280    14.3   99999.0    0.00 
 149   15:50   0.59   61.5    34    8.2   283    14.3   99999.0    0.00 
 149   16:00   0.70   61.6    34    8.7   283    15.5   99999.0    0.00 
 149   16:10   0.52   61.7    31    7.0   278    13.7   99999.0    0.00 
 149   16:20   0.48   61.4    31    7.1   278    11.3   99999.0    0.00 
 149   16:30   0.51   61.4    29    6.6   276    10.2   99999.0    0.00 
 149   16:40   0.36   61.2    29    5.8   274     9.0   99999.0    0.00 
 149   16:50   0.37   60.6    32    6.0   274    11.9   99999.0    0.00 
 149   17:00   0.48   60.7    31    9.0   285    14.3   99999.0    0.00 
 149   17:10   0.42   60.4    31    8.8   286    13.1   99999.0    0.00 
 149   17:20   0.37   61.0    32    7.0   278    10.2   99999.0    0.00 
 149   17:30   0.26   60.4    31    5.5   272     9.0   99999.0    0.00 
 149   17:40   0.29   60.4    33    5.7   274     8.4   99999.0    0.00 
 149   17:50   0.26   59.8    34    6.6   276     9.6   99999.0    0.00 
 149   18:00   0.23   59.1    34    6.7   278    11.9   99999.0    0.00 
 149   18:10   0.20   58.2    36    6.5   276    10.2   99999.0    0.00 
 149   18:20   0.17   57.5    37    7.3   279    12.5   99999.0    0.00 
 149   18:30   0.14   56.7    38    7.3   275    11.3   99999.0    0.00 
 149   18:40   0.10   56.0    39    5.9   266    10.2   99999.0    0.00 
 149   18:50   0.06   55.1    39    5.6   262    12.5   99999.0    0.00 
 149   19:00   0.03   54.2    39    5.5   254    11.9   99999.0    0.00 
 149   19:10   0.01   53.2    41    5.0   255     7.8   99999.0    0.00 
 149   19:20   0.01   52.2    44    4.2   255     6.0   99999.0    0.00 

Return to San Antonio, Valles Caldera graphs page.


Western Regional Climate Center,wrcc@dri.edu